Time;durP1;ratioP1;P1;durP2;ratioP2;P2;SDS_P1;SDS_P2;PMS_P1;PMS_P2;Temp;Humidity;BMP_temperature;BMP_pressure;BME280_temperature;BME280_humidity;BME280_pressure;Samples;Min_cycle;Max_cycle;Signal;HPM_P1;HPM_P2
2023/02/18 00:01:01;;;;;;;3.23;1.87;;;;;;;10.33;69.47;101582.88;6248935;28;20362;-68
2023/02/18 00:04:24;;;;;;;15.17;3.30;;;;;;;10.38;69.16;101578.84;6234642;28;20232;-69
2023/02/18 00:07:45;;;;;;;11.60;4.63;;;;;;;10.50;68.37;101573.47;6223207;28;20233;-69
2023/02/18 00:11:06;;;;;;;7.10;2.60;;;;;;;10.11;69.75;101577.41;6249076;28;20232;-69
2023/02/18 00:14:27;;;;;;;7.50;3.57;;;;;;;10.33;68.95;101567.56;6235380;28;20496;-68
2023/02/18 00:17:48;;;;;;;12.40;2.57;;;;;;;10.56;67.80;101581.09;6233050;28;20398;-70
2023/02/18 00:21:10;;;;;;;6.83;2.30;;;;;;;10.53;68.01;101574.13;6231207;28;20236;-70
2023/02/18 00:24:31;;;;;;;6.30;2.57;;;;;;;10.38;68.86;101583.38;6236473;28;20231;-70
2023/02/18 00:27:52;;;;;;;6.40;2.80;;;;;;;10.23;69.34;101585.41;6243568;28;20244;-70
2023/02/18 00:31:17;;;;;;;24.13;4.40;;;;;;;10.34;69.22;101590.84;6228123;28;20224;-70
2023/02/18 00:34:37;;;;;;;8.03;2.90;;;;;;;10.27;69.97;101591.41;6230374;28;20221;-69
2023/02/18 00:38:00;;;;;;;6.60;2.70;;;;;;;9.89;70.58;101590.72;6231937;28;20312;-69
2023/02/18 00:41:22;;;;;;;3.90;2.27;;;;;;;10.10;70.03;101600.78;6250296;28;20314;-70
2023/02/18 00:44:43;;;;;;;8.10;2.90;;;;;;;10.12;70.33;101609.59;6240166;28;20231;-69
2023/02/18 00:48:04;;;;;;;8.83;4.17;;;;;;;10.26;69.57;101595.94;6234219;28;20347;-70
2023/02/18 00:51:25;;;;;;;12.00;3.00;;;;;;;10.19;69.78;101604.63;6246791;28;20224;-69
2023/02/18 00:54:48;;;;;;;11.33;3.50;;;;;;;10.17;69.60;101614.66;6231131;28;20224;-69
2023/02/18 00:58:09;;;;;;;10.67;5.10;;;;;;;10.18;69.79;101611.00;6235826;28;20354;-70
2023/02/18 01:01:31;;;;;;;7.40;4.93;;;;;;;10.00;70.41;101607.81;6221124;28;20237;-70
2023/02/18 01:04:52;;;;;;;7.00;2.93;;;;;;;10.25;69.71;101607.72;6229625;28;20235;-71
2023/02/18 01:08:13;;;;;;;8.03;3.37;;;;;;;9.80;71.41;101615.63;6219544;28;20221;-69
2023/02/18 01:11:35;;;;;;;10.60;3.17;;;;;;;9.87;71.09;101609.69;6231095;28;20225;-69
2023/02/18 01:14:56;;;;;;;12.07;3.87;;;;;;;10.24;69.48;101605.97;6227592;28;20231;-70
2023/02/18 01:18:17;;;;;;;4.80;3.30;;;;;;;10.24;69.15;101605.13;6231371;28;20231;-70
2023/02/18 01:21:38;;;;;;;8.53;3.63;;;;;;;9.99;70.80;101607.94;6251385;28;20232;-69
2023/02/18 01:24:58;;;;;;;7.50;2.53;;;;;;;10.13;69.87;101605.06;6246888;28;20219;-70
2023/02/18 01:28:24;;;;;;;10.27;3.10;;;;;;;10.04;68.96;101609.28;6250515;28;20243;-69
2023/02/18 01:31:44;;;;;;;14.97;4.80;;;;;;;10.10;70.48;101605.25;6233667;28;20518;-70
2023/02/18 01:35:06;;;;;;;5.63;2.20;;;;;;;9.79;70.58;101606.69;6258737;28;20244;-70
2023/02/18 01:38:27;;;;;;;25.90;3.93;;;;;;;10.04;70.20;101609.28;6239109;28;20220;-70
2023/02/18 01:41:49;;;;;;;7.20;4.30;;;;;;;9.89;71.10;101620.34;6229449;28;20229;-69
2023/02/18 01:45:42;;;;;;;7.97;3.43;;;;;;;9.90;70.74;101627.44;6242305;28;20223;-70
2023/02/18 01:49:03;;;;;;;6.27;3.53;;;;;;;9.77;71.92;101607.78;6233402;28;20255;-69
2023/02/18 01:52:27;;;;;;;5.77;3.27;;;;;;;9.55;72.22;101606.66;6223682;28;20223;-70
2023/02/18 01:55:49;;;;;;;8.63;3.27;;;;;;;10.01;71.37;101596.03;6217505;28;20228;-70
2023/02/18 01:59:13;;;;;;;9.23;2.30;;;;;;;10.12;70.57;101596.13;6229890;28;20620;-69
2023/02/18 02:02:39;;;;;;;8.97;3.20;;;;;;;10.08;71.08;101588.34;6244560;28;20228;-70
2023/02/18 02:05:59;;;;;;;5.27;2.00;;;;;;;9.97;71.56;101591.03;6235822;28;20233;-69
2023/02/18 02:09:24;;;;;;;6.63;3.00;;;;;;;10.13;71.32;101587.09;6230958;28;20255;-69
2023/02/18 02:12:56;;;;;;;8.17;3.37;;;;;;;9.82;71.87;101592.16;6247602;28;20251;-70
2023/02/18 02:16:25;;;;;;;7.63;3.80;;;;;;;9.71;72.44;101586.69;6242263;28;20229;-70
2023/02/18 02:20:31;;;;;;;12.43;3.97;;;;;;;9.43;73.53;101596.78;6232047;28;20612;-71
2023/02/18 02:24:15;;;;;;;3.17;2.80;;;;;;;9.39;73.84;101587.22;6236543;28;20693;-70
2023/02/18 02:28:01;;;;;;;5.80;3.23;;;;;;;9.82;72.31;101594.84;6238107;28;20224;-68
2023/02/18 02:31:53;;;;;;;12.73;2.57;;;;;;;9.70;72.59;101585.00;6231297;28;20244;-69
2023/02/18 02:35:21;;;;;;;6.03;2.20;;;;;;;9.62;72.64;101574.75;6228034;28;20247;-69
2023/02/18 02:38:54;;;;;;;4.93;2.47;;;;;;;9.45;73.31;101581.38;6217043;28;20227;-70
2023/02/18 02:42:21;;;;;;;2.57;2.30;;;;;;;9.43;73.10;101577.09;6234721;28;20553;-70
2023/02/18 02:45:53;;;;;;;3.17;2.30;;;;;;;9.37;73.93;101562.25;6243749;28;20235;-70
2023/02/18 02:49:26;;;;;;;9.23;2.73;;;;;;;9.29;73.66;101558.41;6244628;28;20222;-70
2023/02/18 02:52:52;;;;;;;5.20;1.63;;;;;;;9.14;73.71;101557.66;6237862;28;20800;-69
2023/02/18 02:56:16;;;;;;;11.13;4.70;;;;;;;9.13;73.89;101558.66;6227169;28;20315;-70
2023/02/18 02:59:41;;;;;;;3.57;3.27;;;;;;;9.70;72.31;101553.53;6247261;28;20227;-70
2023/02/18 03:03:23;;;;;;;6.20;3.33;;;;;;;9.58;72.65;101555.31;6239303;28;20248;-69
2023/02/18 03:07:12;;;;;;;7.17;2.97;;;;;;;9.76;71.28;101549.53;6237309;28;20499;-69
2023/02/18 03:10:46;;;;;;;8.87;3.87;;;;;;;9.39;73.41;101554.06;6251394;28;20235;-69
2023/02/18 03:14:15;;;;;;;9.67;2.93;;;;;;;9.19;74.17;101557.34;6226306;28;20326;-69
2023/02/18 03:17:43;;;;;;;11.63;3.13;;;;;;;9.44;73.45;101549.22;6240561;28;20232;-69
2023/02/18 03:21:09;;;;;;;32.97;6.00;;;;;;;9.58;72.92;101554.44;6242205;28;20239;-69
2023/02/18 03:24:34;;;;;;;6.83;2.30;;;;;;;9.26;74.69;101555.94;6233849;28;20275;-68
2023/02/18 03:27:59;;;;;;;7.07;2.40;;;;;;;9.57;73.04;101548.19;6244301;28;20606;-69
2023/02/18 03:31:23;;;;;;;7.10;2.00;;;;;;;9.52;73.34;101557.59;6231690;28;20252;-69
2023/02/18 03:34:50;;;;;;;5.00;2.07;;;;;;;9.60;72.96;101555.19;6239152;28;20224;-69
2023/02/18 03:38:16;;;;;;;8.13;3.23;;;;;;;9.81;72.38;101555.41;6254899;28;20641;-69
2023/02/18 03:41:37;;;;;;;3.70;2.00;;;;;;;9.97;71.50;101564.91;6248336;28;20239;-70
2023/02/18 03:45:00;;;;;;;5.83;4.40;;;;;;;10.17;69.92;101556.25;6236516;28;20220;-68
2023/02/18 03:48:20;;;;;;;4.13;2.23;;;;;;;9.85;71.19;101557.78;6228634;28;20227;-69
2023/02/18 03:51:41;;;;;;;3.03;2.77;;;;;;;9.89;71.39;101561.94;6258374;28;20240;-69
2023/02/18 03:55:03;;;;;;;2.83;2.53;;;;;;;10.00;70.37;101556.63;6227731;28;20256;-70
2023/02/18 03:58:24;;;;;;;7.07;2.37;;;;;;;9.91;70.72;101551.91;6224357;28;20228;-70
2023/02/18 04:01:47;;;;;;;11.27;2.03;;;;;;;9.72;71.58;101534.59;6252960;28;21671;-70
2023/02/18 04:05:08;;;;;;;5.77;2.53;;;;;;;9.54;71.35;101540.34;6241311;28;20688;-69
2023/02/18 04:08:29;;;;;;;7.90;3.27;;;;;;;10.34;69.67;101546.88;6240639;28;20220;-68
2023/02/18 04:11:50;;;;;;;4.50;1.93;;;;;;;9.92;70.71;101547.41;6238664;28;20235;-69
2023/02/18 04:15:12;;;;;;;6.70;1.47;;;;;;;9.87;71.74;101538.78;6253734;28;20235;-68
2023/02/18 04:18:35;;;;;;;3.17;1.57;;;;;;;10.02;71.54;101540.34;6242215;28;20236;-69
2023/02/18 04:21:55;;;;;;;3.90;1.63;;;;;;;9.56;73.56;101535.72;6248825;28;20225;-69
2023/02/18 04:25:17;;;;;;;5.27;2.10;;;;;;;9.59;72.57;101527.44;6248873;28;20227;-69
2023/02/18 04:28:37;;;;;;;1.83;1.57;;;;;;;9.79;73.37;101522.34;6222760;28;20255;-69
2023/02/18 04:31:58;;;;;;;2.07;1.20;;;;;;;9.56;73.68;101516.88;6251199;28;20302;-69
2023/02/18 04:35:20;;;;;;;5.07;2.23;;;;;;;9.52;74.80;101519.91;6227877;28;20223;-69
2023/02/18 04:38:42;;;;;;;4.50;1.67;;;;;;;9.53;75.05;101509.00;6239251;28;20251;-69
2023/02/18 04:42:07;;;;;;;3.67;3.27;;;;;;;9.64;74.67;101506.38;6255544;28;20232;-69
2023/02/18 04:45:28;;;;;;;4.40;2.60;;;;;;;9.52;75.61;101496.53;6232649;28;20227;-69
2023/02/18 04:48:49;;;;;;;4.00;1.70;;;;;;;9.39;76.07;101500.25;6223867;28;20224;-69
2023/02/18 04:52:11;;;;;;;10.23;3.97;;;;;;;9.58;75.21;101490.69;6244290;28;20235;-68
2023/02/18 04:55:32;;;;;;;2.47;1.10;;;;;;;9.35;75.92;101490.69;6257920;28;20232;-69
2023/02/18 04:58:53;;;;;;;10.03;2.30;;;;;;;9.61;75.81;101492.31;6249349;28;20612;-69
2023/02/18 05:02:14;;;;;;;2.50;0.93;;;;;;;9.46;75.46;101499.69;6244405;28;20260;-70
2023/02/18 05:05:36;;;;;;;2.63;1.53;;;;;;;9.67;75.05;101499.94;6259028;28;20593;-70
2023/02/18 05:08:58;;;;;;;5.53;2.37;;;;;;;9.57;75.29;101499.72;6244994;28;20227;-70
2023/02/18 05:12:19;;;;;;;5.80;1.83;;;;;;;9.37;76.06;101494.13;6240234;28;20240;-70
2023/02/18 05:15:39;;;;;;;2.53;2.00;;;;;;;9.93;74.51;101497.97;6240413;28;20228;-70
2023/02/18 05:19:00;;;;;;;10.10;3.83;;;;;;;9.51;76.72;101485.91;6241596;28;20227;-70
2023/02/18 05:22:21;;;;;;;10.80;2.77;;;;;;;9.47;76.07;101479.88;6251132;28;20227;-70
2023/02/18 05:25:43;;;;;;;4.13;1.50;;;;;;;9.82;75.83;101481.75;6238470;28;20229;-69
2023/02/18 05:29:04;;;;;;;3.00;1.67;;;;;;;9.68;76.64;101472.88;6223140;28;20232;-71
2023/02/18 05:32:25;;;;;;;3.10;1.47;;;;;;;9.55;77.25;101482.00;6245097;28;20240;-69
2023/02/18 05:35:46;;;;;;;4.60;1.30;;;;;;;9.82;76.98;101474.53;6248924;28;20673;-69
2023/02/18 05:39:07;;;;;;;2.80;2.50;;;;;;;9.28;78.47;101466.06;6230450;28;20247;-68
2023/02/18 05:42:29;;;;;;;3.73;2.40;;;;;;;9.33;79.30;101474.66;6249009;28;20239;-69
2023/02/18 05:45:50;;;;;;;6.20;1.63;;;;;;;9.72;77.54;101453.81;6253608;28;20511;-69
2023/02/18 05:49:11;;;;;;;6.27;2.20;;;;;;;9.68;78.58;101444.25;6224855;28;21064;-69
2023/02/18 05:52:32;;;;;;;3.57;2.27;;;;;;;9.24;80.00;101447.59;6234238;28;20862;-69
2023/02/18 05:55:53;;;;;;;4.87;2.20;;;;;;;9.48;79.51;101443.06;6242115;28;20771;-69
2023/02/18 05:59:15;;;;;;;3.43;1.60;;;;;;;9.31;80.71;101459.59;6251189;28;20797;-70
2023/02/18 06:02:36;;;;;;;4.53;1.50;;;;;;;9.37;79.65;101456.44;6235476;28;20233;-69
2023/02/18 06:05:57;;;;;;;3.60;1.10;;;;;;;9.42;80.06;101441.69;6244266;28;20508;-69
2023/02/18 06:09:18;;;;;;;3.67;1.30;;;;;;;9.16;82.08;101429.31;6216834;28;20224;-69
2023/02/18 06:12:39;;;;;;;6.67;1.43;;;;;;;9.27;80.57;101432.06;6235129;28;20228;-70
2023/02/18 06:16:01;;;;;;;4.13;1.37;;;;;;;9.77;79.43;101443.53;6233379;28;20228;-69
2023/02/18 06:19:22;;;;;;;3.07;1.40;;;;;;;9.46;79.05;101428.88;6241630;28;20239;-69
2023/02/18 06:22:43;;;;;;;2.87;1.40;;;;;;;9.61;78.79;101423.19;6252804;28;20228;-69
2023/02/18 06:26:05;;;;;;;5.10;1.40;;;;;;;9.30;79.24;101396.88;6240564;28;20240;-69
2023/02/18 06:29:28;;;;;;;3.87;2.60;;;;;;;9.27;80.33;101389.03;6233707;28;20228;-69
2023/02/18 06:32:51;;;;;;;2.50;1.13;;;;;;;9.51;79.25;101392.53;6245536;28;20302;-69
2023/02/18 06:36:13;;;;;;;3.60;1.30;;;;;;;10.01;77.60;101388.63;6237289;28;20229;-69
2023/02/18 06:39:34;;;;;;;4.77;3.43;;;;;;;9.92;77.18;101388.50;6230967;28;20533;-70
2023/02/18 06:42:55;;;;;;;4.93;1.23;;;;;;;9.97;77.95;101381.78;6242441;28;20236;-70
2023/02/18 06:46:16;;;;;;;2.40;1.63;;;;;;;9.94;77.78;101375.78;6213825;28;20508;-70
2023/02/18 06:49:38;;;;;;;3.80;1.63;;;;;;;10.27;76.72;101359.69;6237001;28;20251;-69
2023/02/18 06:52:59;;;;;;;5.03;1.10;;;;;;;10.66;74.49;101352.94;6243312;28;20277;-69
2023/02/18 06:56:20;;;;;;;9.50;1.97;;;;;;;10.26;75.92;101350.72;6233056;28;20224;-70
2023/02/18 06:59:41;;;;;;;1.90;1.67;;;;;;;9.83;78.60;101343.44;6226673;28;20231;-70
2023/02/18 07:03:02;;;;;;;5.37;2.30;;;;;;;10.13;77.75;101335.69;6223413;28;20240;-70
2023/02/18 07:06:25;;;;;;;1.80;1.10;;;;;;;9.84;78.27;101321.78;6239644;28;20248;-69
2023/02/18 07:09:46;;;;;;;2.40;1.10;;;;;;;9.51;80.42;101311.81;6235262;28;20232;-70
2023/02/18 07:13:06;;;;;;;1.30;1.20;;;;;;;9.98;78.27;101307.22;6236025;28;20588;-69
2023/02/18 07:16:27;;;;;;;1.60;1.50;;;;;;;9.84;78.08;101307.47;6228749;28;20227;-71
2023/02/18 07:19:48;;;;;;;6.70;1.80;;;;;;;10.65;76.12;101310.75;6221096;28;20239;-71
2023/02/18 07:23:11;;;;;;;2.17;1.63;;;;;;;10.14;77.17;101315.81;6242448;28;20236;-69
2023/02/18 07:26:32;;;;;;;3.17;1.40;;;;;;;10.55;75.79;101304.41;6237196;28;20321;-70
2023/02/18 07:29:53;;;;;;;4.40;1.50;;;;;;;10.90;73.46;101292.44;6249707;28;20578;-69
2023/02/18 07:33:14;;;;;;;5.43;1.70;;;;;;;10.01;76.32;101280.06;6229955;28;20279;-70
2023/02/18 07:36:35;;;;;;;3.03;1.57;;;;;;;10.38;74.91;101257.28;6227460;28;20236;-70
2023/02/18 07:39:57;;;;;;;3.17;1.83;;;;;;;11.22;72.17;101230.34;6241579;28;20235;-70
2023/02/18 07:43:18;;;;;;;1.70;1.53;;;;;;;11.46;70.50;101233.63;6224409;28;20228;-69
2023/02/18 07:46:39;;;;;;;3.07;1.47;;;;;;;10.72;72.16;101248.09;6247373;28;20224;-70
2023/02/18 07:50:00;;;;;;;5.13;1.87;;;;;;;10.46;73.79;101233.25;6244556;28;20252;-69
2023/02/18 07:53:21;;;;;;;3.70;2.37;;;;;;;10.59;74.61;101222.28;6216648;28;20932;-70
2023/02/18 07:56:43;;;;;;;4.17;1.60;;;;;;;10.84;73.67;101209.34;6239024;28;20228;-70
2023/02/18 08:00:06;;;;;;;3.03;2.00;;;;;;;10.82;74.07;101187.03;6240087;28;20357;-69
2023/02/18 08:03:34;;;;;;;5.93;4.30;;;;;;;11.49;72.09;101179.38;6219825;28;20241;-69
2023/02/18 08:06:55;;;;;;;3.60;3.27;;;;;;;11.53;71.17;101170.00;6250331;28;20590;-68
2023/02/18 08:10:16;;;;;;;8.77;1.70;;;;;;;11.61;70.73;101156.69;6235517;28;20319;-68
2023/02/18 08:13:38;;;;;;;3.57;1.80;;;;;;;11.83;70.43;101161.03;6222559;28;20240;-68
2023/02/18 08:16:59;;;;;;;1.60;1.50;;;;;;;11.77;69.84;101167.00;6235407;28;20221;-68
2023/02/18 08:20:20;;;;;;;2.73;2.07;;;;;;;10.42;75.62;101170.66;6258526;28;20247;-67
2023/02/18 08:23:40;;;;;;;2.67;1.80;;;;;;;11.01;73.85;101170.13;6243689;28;20235;-68
2023/02/18 08:27:02;;;;;;;2.47;1.73;;;;;;;10.90;74.29;101170.19;6251380;28;20228;-68
2023/02/18 08:30:24;;;;;;;2.43;2.23;;;;;;;10.49;75.56;101153.97;6240605;28;20236;-68
2023/02/18 08:33:45;;;;;;;3.83;2.40;;;;;;;10.60;76.74;101149.38;6246152;28;20235;-68
2023/02/18 08:37:06;;;;;;;4.20;1.87;;;;;;;10.26;78.64;101156.72;6234359;28;20236;-68
2023/02/18 08:40:27;;;;;;;2.70;1.27;;;;;;;11.17;75.33;101149.78;6242532;28;20582;-69
2023/02/18 08:43:48;;;;;;;3.83;2.17;;;;;;;10.15;78.70;101143.31;6234386;28;20239;-68
2023/02/18 08:47:10;;;;;;;6.23;1.77;;;;;;;10.92;76.51;101134.00;6251191;28;20228;-69
2023/02/18 08:50:31;;;;;;;4.17;2.07;;;;;;;11.17;75.29;101132.72;6232438;28;20228;-70
2023/02/18 08:53:52;;;;;;;2.90;2.10;;;;;;;11.53;73.45;101115.16;6221995;28;20235;-70
2023/02/18 08:57:13;;;;;;;6.10;2.97;;;;;;;10.82;76.78;101094.47;6238736;28;20224;-70
2023/02/18 09:00:34;;;;;;;4.60;2.67;;;;;;;11.52;74.78;101089.97;6218114;28;20268;-69
2023/02/18 09:03:57;;;;;;;10.83;2.87;;;;;;;11.22;75.45;101088.16;6235190;28;20236;-70
2023/02/18 09:07:18;;;;;;;3.53;2.97;;;;;;;10.94;77.92;101075.38;6250549;28;20244;-69
2023/02/18 09:10:39;;;;;;;3.30;2.17;;;;;;;11.49;75.82;101059.72;6254435;28;20251;-68
2023/02/18 09:14:00;;;;;;;4.83;2.77;;;;;;;11.38;75.97;101044.47;6226915;28;20235;-68
2023/02/18 09:17:20;;;;;;;4.60;2.43;;;;;;;11.16;76.30;101041.97;6238478;28;20232;-68
2023/02/18 09:20:42;;;;;;;6.00;2.03;;;;;;;10.84;78.63;101025.09;6242348;28;20565;-68
2023/02/18 09:24:03;;;;;;;6.27;3.60;;;;;;;11.16;77.15;101012.28;6231869;28;20228;-69
2023/02/18 09:27:25;;;;;;;8.83;3.67;;;;;;;11.41;76.27;101013.66;6235852;28;20228;-69
2023/02/18 09:30:46;;;;;;;5.77;3.17;;;;;;;10.74;79.63;101006.16;6228227;28;20228;-70
2023/02/18 09:34:07;;;;;;;3.27;2.60;;;;;;;10.64;79.35;101005.22;6229616;28;20227;-69
2023/02/18 09:37:30;;;;;;;3.40;2.43;;;;;;;11.30;78.12;101001.13;6239897;28;20248;-69
2023/02/18 09:40:53;;;;;;;4.23;2.80;;;;;;;10.99;80.20;100992.19;6241998;28;20264;-69
2023/02/18 09:44:19;;;;;;;6.13;3.40;;;;;;;10.77;79.71;100980.75;6229434;28;20930;-68
2023/02/18 09:47:43;;;;;;;3.57;2.97;;;;;;;10.82;81.11;100975.81;6239314;28;20255;-69
2023/02/18 09:51:05;;;;;;;4.07;2.97;;;;;;;10.58;81.67;100984.22;6243020;28;21042;-69
2023/02/18 09:54:27;;;;;;;5.60;2.50;;;;;;;11.03;79.98;100960.44;6240712;28;20592;-69
2023/02/18 09:57:52;;;;;;;4.77;3.23;;;;;;;11.37;79.14;100961.78;6238434;28;20346;-70
2023/02/18 10:01:21;;;;;;;3.13;2.43;;;;;;;10.80;81.07;100940.91;6233944;28;20232;-69
2023/02/18 10:04:44;;;;;;;2.43;2.23;;;;;;;11.58;88.85;100932.81;6251755;28;20235;-70
2023/02/18 10:08:17;;;;;;;6.40;4.13;;;;;;;11.74;79.78;100922.38;6245513;28;20236;-69
2023/02/18 10:11:42;;;;;;;5.67;4.17;;;;;;;11.57;79.84;100924.88;6238735;28;20233;-69
2023/02/18 10:15:03;;;;;;;4.33;3.93;;;;;;;11.11;81.33;100934.47;6255758;28;20227;-68
2023/02/18 10:18:28;;;;;;;3.63;2.37;;;;;;;11.40;80.26;100931.81;6217687;28;20608;-69
2023/02/18 10:21:51;;;;;;;3.93;3.60;;;;;;;11.07;81.56;100919.56;6237921;28;20248;-70
2023/02/18 10:25:18;;;;;;;3.17;2.87;;;;;;;11.73;79.71;100906.28;6245207;28;20247;-68
2023/02/18 10:28:41;;;;;;;3.80;3.40;;;;;;;11.39;80.71;100915.78;6215429;28;20235;-69
2023/02/18 10:32:07;;;;;;;4.57;3.00;;;;;;;11.78;79.46;100918.38;6240278;28;20315;-69
2023/02/18 10:35:34;;;;;;;3.60;3.30;;;;;;;11.47;80.18;100908.69;6250394;28;20624;-69
2023/02/18 10:39:08;;;;;;;3.50;3.20;;;;;;;11.81;78.90;100899.19;6237766;28;20235;-71
2023/02/18 10:42:37;;;;;;;3.43;2.67;;;;;;;11.80;78.56;100888.53;6236760;28;20238;-68
2023/02/18 10:46:05;;;;;;;4.27;2.87;;;;;;;11.99;79.01;100889.34;6244478;28;20997;-68
2023/02/18 10:49:57;;;;;;;2.93;2.73;;;;;;;12.29;76.85;100872.06;6227671;28;20263;-68
2023/02/18 10:53:28;;;;;;;2.40;2.20;;;;;;;11.66;79.39;100861.94;6210839;28;20233;-70
2023/02/18 10:56:51;;;;;;;2.93;2.53;;;;;;;12.23;77.40;100844.75;6252182;28;20358;-69
2023/02/18 11:00:17;;;;;;;4.50;3.43;;;;;;;12.75;75.48;100836.84;6235526;28;20558;-70
2023/02/18 11:03:42;;;;;;;2.47;2.27;;;;;;;12.81;75.13;100847.06;6231367;28;20329;-68
2023/02/18 11:07:05;;;;;;;1.97;1.87;;;;;;;12.53;75.38;100829.13;6245405;28;20793;-69
2023/02/18 11:10:30;;;;;;;2.27;1.80;;;;;;;12.73;75.58;100830.72;6232250;28;20221;-69
2023/02/18 11:13:54;;;;;;;2.00;1.90;;;;;;;12.79;75.14;100821.16;6233169;28;20247;-70
2023/02/18 11:17:21;;;;;;;1.93;1.83;;;;;;;12.92;74.47;100809.97;6250029;28;20232;-70
2023/02/18 11:20:55;;;;;;;2.83;2.27;;;;;;;13.10;73.89;100806.28;6242087;28;20418;-69
2023/02/18 11:24:16;;;;;;;3.83;2.30;;;;;;;13.25;72.98;100801.19;6230378;28;20223;-69
2023/02/18 11:27:43;;;;;;;1.60;1.50;;;;;;;13.31;72.56;100787.88;6238486;28;20252;-69
2023/02/18 11:31:05;;;;;;;3.97;2.10;;;;;;;13.34;72.65;100778.59;6243383;28;20512;-69
2023/02/18 11:34:28;;;;;;;3.10;2.80;;;;;;;13.32;72.99;100781.47;6244912;28;20339;-70
2023/02/18 11:37:52;;;;;;;2.63;2.43;;;;;;;13.35;73.20;100766.78;6242756;28;20545;-69
2023/02/18 11:41:15;;;;;;;4.07;2.67;;;;;;;13.07;75.28;100774.16;6257976;28;20240;-69
2023/02/18 11:44:39;;;;;;;3.57;2.70;;;;;;;13.26;75.16;100770.41;6235595;28;20311;-70
2023/02/18 11:48:02;;;;;;;2.30;2.00;;;;;;;12.25;85.60;100762.53;6238612;28;20684;-69
2023/02/18 11:51:25;;;;;;;2.90;2.70;;;;;;;12.22;88.40;100757.44;6243036;28;20225;-70
2023/02/18 11:55:01;;;;;;;4.80;2.33;;;;;;;12.11;93.19;100763.03;6236662;28;20243;-68
2023/02/18 11:58:22;;;;;;;0.50;0.50;;;;;;;12.33;93.78;100767.22;6240063;28;20237;-69
2023/02/18 12:01:47;;;;;;;1.13;0.50;;;;;;;12.08;95.15;100789.50;6241543;28;20240;-70
2023/02/18 12:05:15;;;;;;;0.40;0.40;;;;;;;12.38;95.30;100786.50;6238424;28;20236;-69
2023/02/18 12:08:48;;;;;;;0.40;0.40;;;;;;;12.33;94.48;100794.25;6233770;28;20357;-69
2023/02/18 12:12:16;;;;;;;1.13;0.50;;;;;;;12.52;94.21;100797.69;6257097;28;20824;-69
2023/02/18 12:15:50;;;;;;;0.40;0.40;;;;;;;13.06;90.30;100794.06;6250096;28;20227;-69
2023/02/18 12:19:31;;;;;;;0.80;0.80;;;;;;;12.86;91.87;100795.19;6253833;28;20219;-69
2023/02/18 12:23:02;;;;;;;0.37;0.37;;;;;;;12.54;93.44;100802.94;6252196;28;20634;-70
2023/02/18 12:26:28;;;;;;;0.37;0.37;;;;;;;12.86;91.42;100803.31;6247878;28;20231;-69
2023/02/18 12:30:14;;;;;;;0.73;0.60;;;;;;;12.41;92.63;100805.97;6247700;28;20230;-69
2023/02/18 12:33:48;;;;;;;0.47;0.47;;;;;;;12.39;92.71;100821.50;6228557;28;20311;-70
2023/02/18 12:37:28;;;;;;;0.60;0.60;;;;;;;12.30;92.97;100821.56;6259187;28;20223;-69
2023/02/18 12:41:02;;;;;;;0.70;0.70;;;;;;;12.24;93.96;100824.84;6214946;28;20319;-70
2023/02/18 12:44:34;;;;;;;1.13;1.00;;;;;;;12.41;93.31;100826.78;6231065;28;20227;-70
2023/02/18 12:48:15;;;;;;;3.10;0.70;;;;;;;12.56;92.80;100838.78;6209456;28;20229;-69
2023/02/18 12:51:49;;;;;;;2.17;0.77;;;;;;;12.38;92.94;100835.19;6237438;28;20326;-70
2023/02/18 12:55:32;;;;;;;0.60;0.53;;;;;;;12.53;92.25;100845.38;6247141;28;20232;-68
2023/02/18 12:59:03;;;;;;;0.73;0.60;;;;;;;12.58;91.64;100843.03;6226922;28;20228;-70
2023/02/18 13:02:44;;;;;;;0.97;0.87;;;;;;;12.34;92.25;100847.28;6239944;28;20244;-70
2023/02/18 13:06:21;;;;;;;2.57;1.43;;;;;;;12.39;92.15;100853.13;6254266;28;20389;-69
2023/02/18 13:10:06;;;;;;;1.53;1.20;;;;;;;12.53;92.13;100852.63;6254277;28;20238;-70
2023/02/18 13:13:31;;;;;;;2.13;1.90;;;;;;;12.23;91.78;100850.16;6238080;28;20641;-70
2023/02/18 13:16:55;;;;;;;2.60;1.23;;;;;;;12.28;91.28;100856.84;6256253;28;20227;-70
2023/02/18 13:20:22;;;;;;;6.87;1.63;;;;;;;12.36;91.41;100865.06;6246427;28;20231;-70
2023/02/18 13:23:51;;;;;;;2.33;1.50;;;;;;;12.29;91.64;100868.50;6249313;28;20318;-70
2023/02/18 13:27:21;;;;;;;1.90;1.53;;;;;;;12.35;91.66;100876.88;6242464;28;20232;-69
2023/02/18 13:30:48;;;;;;;3.40;1.43;;;;;;;12.81;91.65;100893.03;6247506;28;20255;-71
2023/02/18 13:34:16;;;;;;;12.57;3.50;;;;;;;12.76;89.95;100902.63;6236233;28;20243;-70
2023/02/18 13:37:44;;;;;;;3.63;1.80;;;;;;;12.70;88.77;100893.22;6255717;28;20231;-69
2023/02/18 13:41:07;;;;;;;3.57;3.00;;;;;;;12.59;89.15;100906.97;6242341;28;20241;-69
2023/02/18 13:45:01;;;;;;;4.13;1.67;;;;;;;12.88;88.58;100903.25;6233977;28;20677;-69
2023/02/18 13:48:26;;;;;;;2.93;2.63;;;;;;;12.38;89.75;100910.88;6218882;28;20772;-69
2023/02/18 13:51:50;;;;;;;3.80;2.07;;;;;;;12.66;88.84;100918.06;6238760;28;20229;-69
2023/02/18 13:55:20;;;;;;;3.50;1.93;;;;;;;12.48;89.54;100930.63;6243217;28;20314;-68
2023/02/18 13:58:49;;;;;;;4.60;2.00;;;;;;;12.66;89.06;100931.56;6234132;28;20628;-70
2023/02/18 14:02:32;;;;;;;2.00;1.90;;;;;;;12.66;88.84;100937.81;6235038;28;20235;-69
2023/02/18 14:05:56;;;;;;;3.40;1.53;;;;;;;12.62;88.98;100931.00;6258264;28;20537;-70
2023/02/18 14:09:39;;;;;;;3.53;1.67;;;;;;;12.62;88.42;100946.41;6238616;28;20582;-69
2023/02/18 14:13:17;;;;;;;2.73;2.30;;;;;;;12.88;87.26;100954.66;6243469;28;20229;-69
2023/02/18 14:17:08;;;;;;;5.30;2.20;;;;;;;12.40;88.21;100965.66;6227178;28;20220;-70
2023/02/18 14:20:45;;;;;;;1.97;1.83;;;;;;;12.26;88.27;100975.09;6231055;28;20227;-71
2023/02/18 14:24:07;;;;;;;1.30;1.10;;;;;;;12.28;87.81;100983.03;6249208;28;20615;-69
2023/02/18 14:27:28;;;;;;;2.73;1.30;;;;;;;12.34;86.84;100998.69;6239474;28;20772;-71
2023/02/18 14:30:51;;;;;;;1.20;0.87;;;;;;;12.02;85.80;101016.06;6232379;28;21146;-69
2023/02/18 14:34:59;;;;;;;3.27;3.07;;;;;;;12.24;84.35;101023.03;6233143;28;20239;-69
2023/02/18 14:38:50;;;;;;;1.90;1.50;;;;;;;12.21;84.00;101033.25;6221483;28;20225;-71
2023/02/18 14:42:22;;;;;;;0.63;0.63;;;;;;;12.17;83.32;101054.31;6238317;28;20232;-70
2023/02/18 14:46:05;;;;;;;0.70;0.60;;;;;;;12.32;81.24;101063.72;6236403;28;20239;-70
2023/02/18 14:49:37;;;;;;;0.80;0.80;;;;;;;12.20;81.30;101070.25;6231190;28;20575;-70
2023/02/18 14:53:02;;;;;;;1.23;1.23;;;;;;;12.46;81.12;101075.91;6258316;28;20228;-70
2023/02/18 14:56:25;;;;;;;0.93;0.93;;;;;;;12.39;80.41;101067.53;6236613;28;20240;-69
2023/02/18 14:59:46;;;;;;;1.20;1.20;;;;;;;12.23;79.89;101064.56;6230172;28;20245;-70
2023/02/18 15:03:13;;;;;;;0.70;0.70;;;;;;;12.29;79.99;101068.53;6232339;28;20237;-70
2023/02/18 15:06:38;;;;;;;1.10;1.03;;;;;;;12.30;79.81;101071.09;6234847;28;20228;-71
2023/02/18 15:09:59;;;;;;;1.57;1.00;;;;;;;12.64;79.02;101064.22;6253688;28;20224;-70
2023/02/18 15:13:26;;;;;;;1.57;1.47;;;;;;;12.64;77.11;101074.22;6242121;28;21057;-68
2023/02/18 15:16:48;;;;;;;1.07;1.07;;;;;;;12.80;77.87;101101.53;6247775;28;20229;-67
2023/02/18 15:20:12;;;;;;;1.87;0.60;;;;;;;12.87;80.53;101097.22;6243138;28;21339;-67
2023/02/18 15:23:36;;;;;;;4.73;1.93;;;;;;;12.95;77.04;101110.91;6224962;28;20228;-68
2023/02/18 15:27:01;;;;;;;2.57;2.37;;;;;;;12.92;74.60;101122.00;6242025;28;20250;-67
2023/02/18 15:30:28;;;;;;;2.43;1.73;;;;;;;12.91;73.20;101138.38;6233471;28;20223;-67
2023/02/18 15:33:49;;;;;;;0.73;0.73;;;;;;;12.95;75.85;101150.63;6222867;28;20285;-67
2023/02/18 15:37:12;;;;;;;2.03;0.60;;;;;;;12.66;72.62;101156.06;6238459;28;20227;-67
2023/02/18 15:40:37;;;;;;;0.67;0.67;;;;;;;13.79;74.70;101164.06;6237324;28;20319;-70
2023/02/18 15:44:04;;;;;;;1.53;0.73;;;;;;;13.49;71.04;101177.91;6250163;28;20230;-70
2023/02/18 15:47:26;;;;;;;1.20;1.20;;;;;;;13.52;70.77;101181.16;6255234;28;20232;-70
2023/02/18 15:50:51;;;;;;;0.70;0.70;;;;;;;13.46;71.17;101180.88;6228650;28;20592;-70
2023/02/18 15:54:16;;;;;;;0.77;0.77;;;;;;;12.83;70.26;101185.94;6245774;28;20262;-71
2023/02/18 15:57:37;;;;;;;0.50;0.40;;;;;;;12.74;71.14;101181.41;6246423;28;20256;-71